createdAt,value
2023-05-09T00:01:58.474Z,84.4
2023-05-09T00:03:57.547Z,85.1
2023-05-09T00:05:57.138Z,85.1
2023-05-09T00:07:57.258Z,84.9
2023-05-09T00:09:57.263Z,84.5
2023-05-09T00:11:56.860Z,84.5
2023-05-09T00:13:56.814Z,84.5
2023-05-09T00:15:56.712Z,84.5
2023-05-09T00:17:56.698Z,85
2023-05-09T00:19:56.821Z,85.2
2023-05-09T00:21:56.475Z,85.2
2023-05-09T00:23:56.561Z,85.2
2023-05-09T00:25:56.392Z,85.2
2023-05-09T00:27:56.265Z,84.8
2023-05-09T00:29:56.178Z,84.8
2023-05-09T00:31:56.543Z,84.8
2023-05-09T00:33:56.071Z,84.8
2023-05-09T00:35:55.962Z,84.8
2023-05-09T00:37:55.907Z,85.1
2023-05-09T00:39:56.004Z,85.1
2023-05-09T00:41:56.217Z,85.1
2023-05-09T00:43:55.739Z,85.9
2023-05-09T00:45:55.813Z,85.9
2023-05-09T00:47:55.776Z,85.5
2023-05-09T00:49:57.429Z,85.5
2023-05-09T00:51:56.317Z,85.5
2023-05-09T00:53:55.298Z,85.5
2023-05-09T00:55:56.604Z,85.5
2023-05-09T00:57:55.232Z,85.9
2023-05-09T00:59:55.111Z,85.9
2023-05-09T01:01:54.975Z,85.9
2023-05-09T01:03:55.444Z,85.9
2023-05-09T01:06:02.821Z,85.9
2023-05-09T01:08:02.544Z,86
2023-05-09T01:10:01.973Z,86
2023-05-09T01:12:05.878Z,86
2023-05-09T01:14:07.780Z,86
2023-05-09T01:16:00.434Z,86
2023-05-09T01:18:00.624Z,86.3
2023-05-09T01:20:02.417Z,86.3
2023-05-09T01:21:58.177Z,86.3
2023-05-09T01:24:18.774Z,86.3
2023-05-09T01:26:01.343Z,86.3
2023-05-09T01:28:04.991Z,85.4
2023-05-09T01:29:57.382Z,85.4
2023-05-09T01:31:55.850Z,85.4
2023-05-09T01:33:59.130Z,85.4
2023-05-09T01:36:07.584Z,85.4
2023-05-09T01:37:56.048Z,85
2023-05-09T01:39:58.471Z,85
2023-05-09T01:41:57.886Z,85
2023-05-09T01:43:55.255Z,85
2023-05-09T01:45:54.622Z,85
2023-05-09T01:47:55.582Z,85.5
2023-05-09T01:49:55.923Z,85.5
2023-05-09T01:51:54.325Z,85.5
2023-05-09T01:53:54.877Z,85.5
2023-05-09T01:55:54.158Z,85.5
2023-05-09T01:57:55.079Z,85.4
2023-05-09T01:59:54.621Z,85.4
2023-05-09T02:01:53.105Z,85.4
2023-05-09T02:03:55.220Z,85.4
2023-05-09T02:05:54.366Z,85.4
2023-05-09T02:07:54.288Z,84.8
2023-05-09T02:09:55.738Z,84.8
2023-05-09T02:11:53.440Z,84.8
2023-05-09T02:13:52.436Z,84.8
2023-05-09T02:15:53.405Z,84.8
2023-05-09T02:17:52.602Z,85
2023-05-09T02:19:52.061Z,85
2023-05-09T02:21:52.416Z,85
2023-05-09T02:23:52.082Z,85
2023-05-09T02:25:52.310Z,85
2023-05-09T02:27:54.015Z,84.1
2023-05-09T02:29:55.925Z,84.8
2023-05-09T02:31:53.232Z,84.2
2023-05-09T02:33:52.757Z,84.2
2023-05-09T02:35:52.161Z,84.2
2023-05-09T02:37:51.869Z,83.6
2023-05-09T02:39:51.708Z,83
2023-05-09T02:41:52.427Z,82.3
2023-05-09T02:43:51.381Z,80.8
2023-05-09T02:45:51.213Z,80.8
2023-05-09T02:47:51.177Z,80.6
2023-05-09T02:49:51.067Z,80.6
2023-05-09T02:51:51.110Z,81.3
2023-05-09T02:53:51.136Z,80.8
2023-05-09T02:55:51.216Z,80.2
2023-05-09T02:57:58.917Z,79.6
2023-05-09T02:59:50.921Z,79.6
2023-05-09T03:01:51.046Z,78.4
2023-05-09T03:03:51.552Z,77
2023-05-09T03:05:50.731Z,77.7
2023-05-09T03:07:50.978Z,77.3
2023-05-09T03:09:50.752Z,76.9
2023-05-09T03:11:50.570Z,76.9
2023-05-09T03:13:50.569Z,76.9
2023-05-09T03:15:51.070Z,76
2023-05-09T03:17:50.591Z,75.2
2023-05-09T03:19:50.648Z,75.8
2023-05-09T03:21:51.148Z,75.8
2023-05-09T03:23:50.672Z,75.2
2023-05-09T03:25:51.197Z,74.9
2023-05-09T03:27:50.921Z,74.9
2023-05-09T03:29:51.580Z,74.7
2023-05-09T03:31:51.070Z,74.7
2023-05-09T03:33:50.911Z,74.7
2023-05-09T03:35:51.477Z,74.2
2023-05-09T03:37:51.803Z,72.8
2023-05-09T03:39:51.165Z,73.5
2023-05-09T03:41:51.210Z,72.8
2023-05-09T03:43:51.170Z,73.7
2023-05-09T03:45:51.669Z,72.9
2023-05-09T03:47:52.514Z,72.9
2023-05-09T03:49:53.601Z,72.3
2023-05-09T03:51:52.047Z,72.3
2023-05-09T03:53:52.009Z,72.3
2023-05-09T03:55:52.052Z,71.9
2023-05-09T03:57:52.040Z,71.4
2023-05-09T03:59:52.416Z,70.3
2023-05-09T04:01:52.602Z,69.6
2023-05-09T04:03:52.704Z,69.6
2023-05-09T04:06:04.555Z,68.5
2023-05-09T04:07:53.569Z,67.9
2023-05-09T04:09:54.281Z,67.3
2023-05-09T04:11:53.860Z,66.5
2023-05-09T04:14:00.001Z,65.9
2023-05-09T04:15:54.188Z,65.3
2023-05-09T04:17:54.643Z,64.3
2023-05-09T04:19:55.169Z,63.7
2023-05-09T04:21:55.250Z,62.3
2023-05-09T04:24:00.455Z,61.3
2023-05-09T04:25:56.063Z,60.8
2023-05-09T04:27:56.410Z,60
2023-05-09T04:29:57.073Z,59
2023-05-09T04:31:59.024Z,59
2023-05-09T04:33:58.834Z,59
2023-05-09T04:35:58.712Z,58.4
2023-05-09T04:37:58.916Z,58.4
2023-05-09T04:40:04.731Z,57.8
2023-05-09T04:41:59.589Z,57.3
2023-05-09T04:44:00.771Z,57.3
2023-05-09T04:46:00.590Z,54.6
2023-05-09T04:48:01.214Z,53.9
2023-05-09T04:50:01.608Z,52.2
2023-05-09T04:52:02.644Z,52.8
2023-05-09T04:54:04.966Z,51.7
2023-05-09T04:56:04.260Z,50.2
2023-05-09T04:58:03.714Z,50.2
2023-05-09T05:00:05.201Z,49.6
2023-05-09T05:02:05.027Z,49.6
2023-05-09T05:04:05.512Z,48.8
2023-05-09T05:06:06.898Z,47.7
2023-05-09T05:08:08.843Z,47
2023-05-09T05:10:08.814Z,47
2023-05-09T05:12:09.596Z,47
2023-05-09T05:14:08.454Z,46.1
2023-05-09T05:16:09.566Z,45.7
2023-05-09T05:18:09.448Z,45.7
2023-05-09T05:20:12.637Z,45.7
2023-05-09T05:22:12.512Z,44.4
2023-05-09T05:24:11.448Z,42.7
2023-05-09T05:26:12.255Z,43.5
2023-05-09T05:28:12.773Z,44.2
2023-05-09T05:30:14.405Z,44.2
2023-05-09T05:32:13.885Z,43.6
2023-05-09T05:34:14.542Z,43.1
2023-05-09T05:36:15.830Z,42.5
2023-05-09T05:38:16.164Z,40.7
2023-05-09T05:40:18.343Z,41.5
2023-05-09T05:42:17.121Z,42.1
2023-05-09T05:44:17.684Z,42.1
2023-05-09T05:46:18.766Z,41.9
2023-05-09T05:48:19.777Z,41
2023-05-09T05:50:19.361Z,41
2023-05-09T05:52:19.780Z,41
2023-05-09T05:54:21.079Z,41
2023-05-09T05:56:22.461Z,40.4
2023-05-09T05:58:21.646Z,39.8
2023-05-09T06:00:28.006Z,39.6
2023-05-09T06:02:23.670Z,39.6
2023-05-09T06:04:23.579Z,38
2023-05-09T06:06:25.496Z,38.9
2023-05-09T06:08:24.966Z,38.1
2023-05-09T06:10:25.575Z,39.4
2023-05-09T06:12:27.880Z,38.8
2023-05-09T06:14:27.316Z,39.3
2023-05-09T06:16:27.765Z,38.4
2023-05-09T06:18:29.265Z,38.5
2023-05-09T06:20:28.554Z,37.7
2023-05-09T06:22:29.171Z,37.7
2023-05-09T06:24:35.906Z,37.7
2023-05-09T06:26:30.785Z,37.9
2023-05-09T06:28:31.548Z,37.9
2023-05-09T06:30:31.654Z,37.9
2023-05-09T06:32:33.507Z,38.5
2023-05-09T06:34:33.325Z,37.7
2023-05-09T06:36:34.568Z,37
2023-05-09T06:38:34.384Z,36.5
2023-05-09T06:40:35.193Z,36.5
2023-05-09T06:42:35.542Z,36.5
2023-05-09T06:44:36.290Z,37.6
2023-05-09T06:46:36.935Z,37.1
2023-05-09T06:48:37.442Z,37.1
2023-05-09T06:50:38.179Z,36.1
2023-05-09T06:52:38.763Z,35.9
2023-05-09T06:54:39.423Z,34.8
2023-05-09T06:56:40.114Z,34.9
2023-05-09T06:58:40.886Z,35.5
2023-05-09T07:00:41.330Z,34.2
2023-05-09T07:02:42.467Z,35
2023-05-09T07:04:42.692Z,35
2023-05-09T07:06:43.210Z,34.6
2023-05-09T07:08:43.987Z,34.5
2023-05-09T07:10:44.518Z,33.2
2023-05-09T07:12:45.136Z,34.1
2023-05-09T07:14:45.640Z,33.1
2023-05-09T07:16:46.371Z,31.9
2023-05-09T07:18:47.029Z,31.9
2023-05-09T07:20:47.513Z,33.1
2023-05-09T07:22:48.062Z,32.3
2023-05-09T07:24:48.569Z,32.6
2023-05-09T07:26:49.046Z,31.8
2023-05-09T07:28:49.947Z,31.8
2023-05-09T07:30:49.913Z,32.4
2023-05-09T07:32:50.574Z,32.2
2023-05-09T07:34:50.859Z,31.7
2023-05-09T07:36:51.205Z,32.3
2023-05-09T07:38:51.727Z,31.7
2023-05-09T07:40:51.957Z,31.5
2023-05-09T07:42:52.294Z,32.7
2023-05-09T07:44:52.693Z,31.3
2023-05-09T07:46:53.119Z,32.1
2023-05-09T07:48:53.492Z,32.1
2023-05-09T07:50:53.666Z,31
2023-05-09T07:52:54.030Z,31.9
2023-05-09T07:54:54.284Z,32.5
2023-05-09T07:56:54.646Z,31.9
2023-05-09T07:58:55.885Z,32.7
2023-05-09T08:00:56.007Z,31.9
2023-05-09T08:02:55.789Z,31.1
2023-05-09T08:04:55.871Z,32.1
2023-05-09T08:06:56.219Z,30.8
2023-05-09T08:08:56.672Z,31.6
2023-05-09T08:10:57.085Z,30.8
2023-05-09T08:12:57.273Z,32
2023-05-09T08:14:57.392Z,31.6
2023-05-09T08:16:57.712Z,32.8
2023-05-09T08:18:58.064Z,31.9
2023-05-09T08:20:58.301Z,32.8
2023-05-09T08:22:58.536Z,32.1
2023-05-09T08:24:58.968Z,32.1
2023-05-09T08:26:59.190Z,31.8
2023-05-09T08:28:59.593Z,33
2023-05-09T08:30:59.877Z,31.8
2023-05-09T08:33:00.163Z,32.5
2023-05-09T08:35:00.319Z,33.1
2023-05-09T08:37:01.017Z,32.3
2023-05-09T08:39:00.976Z,33.2
2023-05-09T08:41:01.574Z,33.3
2023-05-09T08:43:02.976Z,31.3
2023-05-09T08:45:06.772Z,28.9
2023-05-09T08:47:03.460Z,28.9
2023-05-09T08:49:05.004Z,28.9
2023-05-09T08:51:03.131Z,28.5
2023-05-09T08:53:03.198Z,30.2
2023-05-09T08:55:03.798Z,30
2023-05-09T08:57:03.838Z,28.3
2023-05-09T08:59:04.133Z,29.3
2023-05-09T09:01:04.189Z,29.2
2023-05-09T09:03:06.561Z,29.9
2023-05-09T09:05:05.849Z,28.5
2023-05-09T09:07:07.318Z,29.1
2023-05-09T09:09:06.717Z,29
2023-05-09T09:11:06.424Z,30.5
2023-05-09T09:13:07.621Z,30.5
2023-05-09T09:15:14.273Z,29.7
2023-05-09T09:17:10.094Z,29
2023-05-09T09:19:11.571Z,30.1
2023-05-09T09:21:10.289Z,31.6
2023-05-09T09:23:08.997Z,31.1
2023-05-09T09:25:08.733Z,33.3
2023-05-09T09:27:08.275Z,34.1
2023-05-09T09:29:08.729Z,33
2023-05-09T09:31:24.595Z,32.5
2023-05-09T09:33:09.416Z,31.6
2023-05-09T09:35:10.937Z,32.4
2023-05-09T09:37:21.574Z,32.6
2023-05-09T09:39:13.232Z,33.2
2023-05-09T09:41:12.191Z,33.2
2023-05-09T09:43:10.825Z,33.9
2023-05-09T09:45:12.393Z,33.6
2023-05-09T09:47:11.418Z,33.8
2023-05-09T09:49:12.760Z,34.2
2023-05-09T09:51:12.000Z,32.4
2023-05-09T09:53:12.433Z,33.1
2023-05-09T09:55:12.578Z,30.8
2023-05-09T09:57:32.947Z,31.7
2023-05-09T09:59:16.782Z,32.8
2023-05-09T10:01:13.523Z,32.8
2023-05-09T10:03:15.462Z,33.3
2023-05-09T10:05:19.530Z,33.3
2023-05-09T10:07:15.209Z,32.9
2023-05-09T10:09:14.682Z,33.8
2023-05-09T10:11:15.075Z,33.9
2023-05-09T10:13:15.320Z,35.1
2023-05-09T10:15:18.013Z,34
2023-05-09T10:17:16.931Z,33.2
2023-05-09T10:19:18.681Z,33.2
2023-05-09T10:21:16.332Z,33.9
2023-05-09T10:23:19.176Z,33.9
2023-05-09T10:25:19.803Z,32.5
2023-05-09T10:27:21.428Z,32.6
2023-05-09T10:29:23.149Z,34.1
2023-05-09T10:31:24.222Z,35.4
2023-05-09T10:33:25.424Z,35.4
2023-05-09T10:35:21.395Z,34.7
2023-05-09T10:37:20.671Z,34.7
2023-05-09T10:39:22.136Z,34.7
2023-05-09T10:41:20.317Z,34.7
2023-05-09T10:43:20.061Z,33.7
2023-05-09T10:45:20.868Z,33.7
2023-05-09T10:47:21.030Z,33.2
2023-05-09T10:49:21.099Z,32.5
2023-05-09T10:51:21.285Z,33.1
2023-05-09T10:53:20.857Z,33
2023-05-09T10:55:21.092Z,33.6
2023-05-09T10:57:21.736Z,33.5
2023-05-09T10:59:37.314Z,32.3
2023-05-09T11:01:30.903Z,33.1
2023-05-09T11:03:22.511Z,32.7
2023-05-09T11:05:22.795Z,32.7
2023-05-09T11:07:24.854Z,32.1
2023-05-09T11:09:25.762Z,34.1
2023-05-09T11:11:23.562Z,31.4
2023-05-09T11:13:24.838Z,32
2023-05-09T11:15:23.879Z,31.3
2023-05-09T11:17:29.631Z,33.6
2023-05-09T11:19:53.873Z,32.5
2023-05-09T11:21:24.804Z,31.7
2023-05-09T11:23:26.897Z,34.9
2023-05-09T11:25:25.909Z,33
2023-05-09T11:27:28.222Z,32.9
2023-05-09T11:29:26.778Z,32
2023-05-09T11:31:26.194Z,33.9
2023-05-09T11:33:27.938Z,33.9
2023-05-09T11:35:26.664Z,33.9
2023-05-09T11:37:30.853Z,33.3
2023-05-09T11:39:27.400Z,33.2
2023-05-09T11:41:28.607Z,34.1
2023-05-09T11:43:28.823Z,34.1
2023-05-09T11:45:30.120Z,34.1
2023-05-09T11:47:28.406Z,34.5
2023-05-09T11:49:29.382Z,35.1
2023-05-09T11:51:28.880Z,33.7
2023-05-09T11:53:29.107Z,33.7
2023-05-09T11:55:29.337Z,34.8
2023-05-09T11:57:29.915Z,34.4
2023-05-09T11:59:30.079Z,34.3
2023-05-09T12:01:30.410Z,34.3
2023-05-09T12:03:30.751Z,34.3
2023-05-09T12:05:31.641Z,34.9
2023-05-09T12:07:30.947Z,33.7
2023-05-09T12:09:32.635Z,34.4
2023-05-09T12:11:31.502Z,32.4
2023-05-09T12:13:31.817Z,32.4
2023-05-09T12:15:36.023Z,32.4
2023-05-09T12:17:32.407Z,33.2
2023-05-09T12:19:33.481Z,30.8
2023-05-09T12:21:32.974Z,31.3
2023-05-09T12:23:34.641Z,34.1
2023-05-09T12:25:33.616Z,32.8
2023-05-09T12:27:35.202Z,32.5
2023-05-09T12:29:34.284Z,32.5
2023-05-09T12:31:34.445Z,32.5
2023-05-09T12:33:36.401Z,34.9
2023-05-09T12:35:37.657Z,31.7
2023-05-09T12:37:35.515Z,32
2023-05-09T12:39:35.485Z,32
2023-05-09T12:41:53.652Z,33.8
2023-05-09T12:43:37.503Z,32.9
2023-05-09T12:45:38.586Z,32.9
2023-05-09T12:47:37.184Z,34.6
2023-05-09T12:49:37.155Z,33.4
2023-05-09T12:51:37.005Z,32.7
2023-05-09T12:53:39.429Z,33.6
2023-05-09T12:55:39.118Z,33.6
2023-05-09T12:57:38.550Z,33.4
2023-05-09T12:59:43.364Z,33.6
2023-05-09T13:01:38.295Z,34.5
2023-05-09T13:03:38.814Z,33.2
2023-05-09T13:05:38.921Z,33.2
2023-05-09T13:07:39.927Z,33.6
2023-05-09T13:09:55.202Z,32.6
2023-05-09T13:11:39.755Z,33.2
2023-05-09T13:13:40.029Z,34.6
2023-05-09T13:15:40.368Z,33.9
2023-05-09T13:17:40.486Z,33.9
2023-05-09T13:19:40.734Z,33.5
2023-05-09T13:21:41.031Z,34.1
2023-05-09T13:23:41.376Z,34.1
2023-05-09T13:25:41.563Z,32.8
2023-05-09T13:27:41.895Z,33.4
2023-05-09T13:29:42.490Z,32.9
2023-05-09T13:31:42.448Z,32.9
2023-05-09T13:33:42.633Z,33.7
2023-05-09T13:35:42.841Z,33.6
2023-05-09T13:37:43.325Z,34.2
2023-05-09T13:39:43.521Z,33.3
2023-05-09T13:41:43.714Z,32.8
2023-05-09T13:43:43.819Z,32.7
2023-05-09T13:45:44.142Z,33.2
2023-05-09T13:47:44.416Z,33.9
2023-05-09T13:49:44.699Z,33.3
2023-05-09T13:51:45.145Z,33.3
2023-05-09T13:53:45.361Z,32.8
2023-05-09T13:55:45.551Z,32.8
2023-05-09T13:57:45.687Z,33.4
2023-05-09T13:59:46.081Z,33.4
2023-05-09T14:01:46.477Z,35.4
2023-05-09T14:03:46.512Z,33.6
2023-05-09T14:05:46.691Z,33.6
2023-05-09T14:07:46.879Z,33.1
2023-05-09T14:09:49.096Z,32.5
2023-05-09T14:11:47.663Z,32.5
2023-05-09T14:13:47.694Z,33.3
2023-05-09T14:15:48.146Z,33.3
2023-05-09T14:17:48.122Z,34.2
2023-05-09T14:19:48.319Z,33.2
2023-05-09T14:21:48.638Z,33.2
2023-05-09T14:23:48.960Z,32.4
2023-05-09T14:25:49.155Z,33.2
2023-05-09T14:27:49.329Z,33.2
2023-05-09T14:29:50.073Z,33.8
2023-05-09T14:31:49.934Z,33.1
2023-05-09T14:33:50.049Z,33.1
2023-05-09T14:35:50.361Z,34.1
2023-05-09T14:37:50.596Z,33.4
2023-05-09T14:39:50.898Z,33.4
2023-05-09T14:41:51.163Z,33.4
2023-05-09T14:43:51.491Z,33.4
2023-05-09T14:45:51.586Z,34.1
2023-05-09T14:47:51.926Z,34.2
2023-05-09T14:49:52.538Z,34.2
2023-05-09T14:51:52.500Z,34.2
2023-05-09T14:53:52.627Z,33.5
2023-05-09T14:55:52.825Z,33.3
2023-05-09T14:57:53.229Z,33.3
2023-05-09T14:59:53.412Z,34.1
2023-05-09T15:01:53.816Z,34.6
2023-05-09T15:03:53.926Z,34.6
2023-05-09T15:05:54.117Z,35.6
2023-05-09T15:07:54.423Z,35.6
2023-05-09T15:09:54.711Z,35.6
2023-05-09T15:11:55.084Z,35.6
2023-05-09T15:13:55.146Z,35.6
2023-05-09T15:15:55.292Z,34.8
2023-05-09T15:17:55.581Z,34.6
2023-05-09T15:19:55.921Z,34.6
2023-05-09T15:21:56.198Z,35.4
2023-05-09T15:23:56.326Z,35.4
2023-05-09T15:25:56.621Z,35.4
2023-05-09T15:27:56.747Z,34.3
2023-05-09T15:29:57.884Z,34.9
2023-05-09T15:31:57.403Z,35.7
2023-05-09T15:33:57.422Z,35.7
2023-05-09T15:35:58.717Z,35.7
2023-05-09T15:37:58.017Z,35.6
2023-05-09T15:39:58.235Z,35.6
2023-05-09T15:41:58.422Z,35.6
2023-05-09T15:43:58.654Z,35.6
2023-05-09T15:45:58.874Z,35.6
2023-05-09T15:47:59.212Z,35.5
2023-05-09T15:49:59.301Z,36.2
2023-05-09T15:51:59.850Z,36.2
2023-05-09T15:53:59.768Z,36.2
2023-05-09T15:56:00.047Z,36.8
2023-05-09T15:58:00.387Z,36.6
2023-05-09T16:00:00.636Z,36.6
2023-05-09T16:02:00.818Z,36.1
2023-05-09T16:04:01.184Z,36.7
2023-05-09T16:06:01.469Z,36.7
2023-05-09T16:08:01.322Z,36.3
2023-05-09T16:10:01.949Z,36.3
2023-05-09T16:12:01.909Z,36.1
2023-05-09T16:14:02.246Z,36.1
2023-05-09T16:16:02.384Z,36.1
2023-05-09T16:18:02.524Z,36.7
2023-05-09T16:20:03.170Z,36.7
2023-05-09T16:22:03.100Z,36.7
2023-05-09T16:24:03.478Z,36.7
2023-05-09T16:26:03.409Z,36.7
2023-05-09T16:28:04.027Z,37.8
2023-05-09T16:30:05.549Z,37.8
2023-05-09T16:32:04.596Z,37.8
2023-05-09T16:34:04.291Z,39.3
2023-05-09T16:36:05.194Z,39.9
2023-05-09T16:38:04.669Z,38.2
2023-05-09T16:40:05.997Z,39.1
2023-05-09T16:42:05.313Z,39.8
2023-05-09T16:44:05.378Z,39.9
2023-05-09T16:46:06.252Z,39.9
2023-05-09T16:48:06.369Z,40.2
2023-05-09T16:50:06.679Z,41.3
2023-05-09T16:52:06.602Z,41.3
2023-05-09T16:54:06.645Z,41.3
2023-05-09T16:56:06.767Z,40.7
2023-05-09T16:58:06.956Z,42.4
2023-05-09T17:00:09.246Z,41.8
2023-05-09T17:02:07.859Z,42.6
2023-05-09T17:04:08.714Z,42.6
2023-05-09T17:06:08.060Z,43.7
2023-05-09T17:08:07.963Z,44.4
2023-05-09T17:10:08.911Z,45.3
2023-05-09T17:12:08.578Z,45.9
2023-05-09T17:14:08.519Z,48.2
2023-05-09T17:16:08.949Z,46.9
2023-05-09T17:18:09.218Z,45.8
2023-05-09T17:20:10.308Z,46.6
2023-05-09T17:22:09.763Z,45.8
2023-05-09T17:24:10.070Z,45.8
2023-05-09T17:26:09.797Z,45.8
2023-05-09T17:28:09.877Z,45.7
2023-05-09T17:30:10.863Z,46.5
2023-05-09T17:32:11.382Z,46.5
2023-05-09T17:34:10.396Z,44.4
2023-05-09T17:36:10.767Z,44.4
2023-05-09T17:38:10.884Z,46.4
2023-05-09T17:40:11.580Z,47.1
2023-05-09T17:42:12.362Z,47.4
2023-05-09T17:44:11.901Z,49.2
2023-05-09T17:46:11.965Z,49.8
2023-05-09T17:48:11.883Z,47.9
2023-05-09T17:50:12.407Z,49.4
2023-05-09T17:52:12.381Z,48.3
2023-05-09T17:54:12.416Z,48.3
2023-05-09T17:56:12.654Z,48.3
2023-05-09T17:58:12.777Z,48.8
2023-05-09T18:00:14.451Z,49.1
2023-05-09T18:02:13.232Z,48.4
2023-05-09T18:04:13.442Z,49.4
2023-05-09T18:06:13.588Z,50.3
2023-05-09T18:08:13.652Z,49.8
2023-05-09T18:10:14.161Z,48.4
2023-05-09T18:12:14.144Z,48.9
2023-05-09T18:14:14.284Z,48.1
2023-05-09T18:16:14.812Z,48.1
2023-05-09T18:18:15.012Z,49.1
2023-05-09T18:20:15.128Z,51
2023-05-09T18:22:15.831Z,52.9
2023-05-09T18:24:16.993Z,52.2
2023-05-09T18:26:15.329Z,54.1
2023-05-09T18:28:16.416Z,53
2023-05-09T18:30:17.659Z,50.2
2023-05-09T18:32:18.531Z,48.9
2023-05-09T18:34:16.731Z,50.5
2023-05-09T18:36:16.215Z,50.9
2023-05-09T18:38:16.344Z,49.7
2023-05-09T18:40:17.271Z,50.6
2023-05-09T18:42:16.686Z,50.2
2023-05-09T18:44:16.787Z,50.6
2023-05-09T18:46:18.108Z,49.9
2023-05-09T18:48:17.127Z,50.2
2023-05-09T18:50:17.677Z,50.2
2023-05-09T18:52:17.567Z,50.2
2023-05-09T18:54:17.582Z,50.2
2023-05-09T18:56:18.562Z,50.6
2023-05-09T18:58:17.955Z,50.6
2023-05-09T19:00:18.269Z,50.1
2023-05-09T19:02:18.616Z,50.7
2023-05-09T19:04:18.695Z,50.7
2023-05-09T19:06:18.928Z,50.7
2023-05-09T19:08:18.753Z,50.1
2023-05-09T19:10:18.892Z,50.1
2023-05-09T19:12:18.946Z,51
2023-05-09T19:14:19.183Z,50.1
2023-05-09T19:16:19.393Z,50.6
2023-05-09T19:18:19.490Z,51.9
2023-05-09T19:20:19.747Z,51.3
2023-05-09T19:22:19.742Z,50.4
2023-05-09T19:24:19.837Z,50.4
2023-05-09T19:26:20.206Z,52
2023-05-09T19:28:20.245Z,52
2023-05-09T19:30:20.478Z,52
2023-05-09T19:32:20.401Z,52.8
2023-05-09T19:34:21.064Z,54.3
2023-05-09T19:36:20.681Z,55.5
2023-05-09T19:38:20.861Z,55.5
2023-05-09T19:40:21.008Z,54.9
2023-05-09T19:42:21.128Z,54.9
2023-05-09T19:44:21.748Z,54.9
2023-05-09T19:46:21.559Z,54.8
2023-05-09T19:48:21.557Z,56.7
2023-05-09T19:50:22.498Z,54.2
2023-05-09T19:52:21.895Z,53.6
2023-05-09T19:54:25.104Z,55.6
2023-05-09T19:56:22.162Z,55
2023-05-09T19:58:22.225Z,54.1
2023-05-09T20:00:22.538Z,55.8
2023-05-09T20:02:22.673Z,55.8
2023-05-09T20:04:22.664Z,55.8
2023-05-09T20:06:22.862Z,54.1
2023-05-09T20:08:22.914Z,54.2
2023-05-09T20:10:23.549Z,54.2
2023-05-09T20:12:23.165Z,55.5
2023-05-09T20:14:23.257Z,55.5
2023-05-09T20:16:23.452Z,52.9
2023-05-09T20:18:23.564Z,54.5
2023-05-09T20:20:23.692Z,53.2
2023-05-09T20:22:23.752Z,54.1
2023-05-09T20:24:23.973Z,54.5
2023-05-09T20:26:25.294Z,54.7
2023-05-09T20:28:24.104Z,54.5
2023-05-09T20:30:24.237Z,55.2
2023-05-09T20:32:24.400Z,55.2
2023-05-09T20:34:24.453Z,55.7
2023-05-09T20:36:24.856Z,55.1
2023-05-09T20:38:24.714Z,55.1
2023-05-09T20:40:24.795Z,55.1
2023-05-09T20:42:24.930Z,55.1
2023-05-09T20:44:25.068Z,55.1
2023-05-09T20:46:25.189Z,55.1
2023-05-09T20:48:25.238Z,54.7
2023-05-09T20:50:25.416Z,54.7
2023-05-09T20:52:25.568Z,54.7
2023-05-09T20:54:25.644Z,54.7
2023-05-09T20:56:26.050Z,54.7
2023-05-09T20:58:25.923Z,55.1
2023-05-09T21:00:26.072Z,55.1
2023-05-09T21:02:26.232Z,55.1
2023-05-09T21:04:26.197Z,55.1
2023-05-09T21:06:26.411Z,55.7
2023-05-09T21:08:26.526Z,54.5
2023-05-09T21:10:26.651Z,54.5
2023-05-09T21:12:26.701Z,54.5
2023-05-09T21:14:26.859Z,55.1
2023-05-09T21:16:27.025Z,55.7
2023-05-09T21:18:27.055Z,54.9
2023-05-09T21:20:27.338Z,54.9
2023-05-09T21:22:27.294Z,55.6
2023-05-09T21:24:27.479Z,57
2023-05-09T21:26:27.782Z,57
2023-05-09T21:28:27.667Z,56.2
2023-05-09T21:30:27.736Z,55.7
2023-05-09T21:32:27.790Z,57
2023-05-09T21:34:27.912Z,56.3
2023-05-09T21:36:28.135Z,55.6
2023-05-09T21:38:28.294Z,55.6
2023-05-09T21:40:28.277Z,56.3
2023-05-09T21:42:28.424Z,56.3
2023-05-09T21:44:28.444Z,56.3
2023-05-09T21:46:31.429Z,56.9
2023-05-09T21:48:28.849Z,56.9
2023-05-09T21:50:28.875Z,56.9
2023-05-09T21:52:28.888Z,56.9
2023-05-09T21:54:28.960Z,56.9
2023-05-09T21:56:29.198Z,56.9
2023-05-09T21:58:29.211Z,57.4
2023-05-09T22:00:29.325Z,57.4
2023-05-09T22:02:29.466Z,57.4
2023-05-09T22:04:29.560Z,58
2023-05-09T22:06:29.925Z,58.8
2023-05-09T22:08:29.869Z,58.8
2023-05-09T22:10:29.982Z,59.3
2023-05-09T22:12:30.189Z,59.3
2023-05-09T22:14:29.971Z,59.4
2023-05-09T22:16:30.184Z,59.4
2023-05-09T22:18:30.675Z,60.1
2023-05-09T22:20:30.347Z,60.1
2023-05-09T22:22:30.411Z,60.1
2023-05-09T22:24:30.595Z,60.1
2023-05-09T22:26:30.711Z,60.1
2023-05-09T22:28:30.776Z,60.1
2023-05-09T22:30:30.936Z,59.6
2023-05-09T22:32:30.978Z,60.2
2023-05-09T22:34:30.986Z,60.2
2023-05-09T22:36:31.285Z,60.2
2023-05-09T22:38:31.428Z,60.3
2023-05-09T22:40:31.403Z,59.6
2023-05-09T22:42:31.451Z,59.6
2023-05-09T22:44:31.442Z,59.6
2023-05-09T22:46:31.703Z,59.6
2023-05-09T22:48:31.762Z,59.5
2023-05-09T22:50:31.844Z,59.5
2023-05-09T22:52:31.878Z,59.5
2023-05-09T22:54:32.133Z,59.8
2023-05-09T22:56:32.145Z,59.8
2023-05-09T22:58:32.287Z,60.4
2023-05-09T23:00:32.419Z,60.4
2023-05-09T23:02:32.574Z,60.4
2023-05-09T23:04:32.496Z,60.5
2023-05-09T23:06:32.741Z,59.8
2023-05-09T23:08:33.341Z,59.8
2023-05-09T23:10:32.810Z,60.4
2023-05-09T23:12:32.880Z,60.4
2023-05-09T23:14:32.937Z,59.5
2023-05-09T23:16:33.669Z,60.5
2023-05-09T23:18:33.161Z,60.5
2023-05-09T23:20:33.244Z,60.3
2023-05-09T23:22:33.315Z,60.3
2023-05-09T23:24:33.829Z,60.3
2023-05-09T23:26:33.546Z,61.1
2023-05-09T23:28:33.580Z,61.6
2023-05-09T23:30:33.721Z,60.4
2023-05-09T23:32:33.809Z,61.2
2023-05-09T23:34:34.005Z,61.2
2023-05-09T23:36:33.991Z,60.7
2023-05-09T23:38:35.257Z,60.7
2023-05-09T23:40:34.297Z,60.7
2023-05-09T23:42:34.296Z,61.5
2023-05-09T23:44:34.587Z,62.7
2023-05-09T23:46:34.778Z,61.8
2023-05-09T23:48:34.562Z,61.4
2023-05-09T23:50:34.784Z,61.4
2023-05-09T23:52:34.872Z,60.5
2023-05-09T23:54:34.962Z,61
2023-05-09T23:56:34.913Z,60.2
2023-05-09T23:58:35.048Z,61.1
